sensor_id;sensor_type;location;lat;lon;timestamp;pressure;altitude;pressure_sealevel;temperature;humidity
76998;BME280;65930;48.874;10.734;2023-04-15T00:01:57;95025.28;;;4.75;84.33
76998;BME280;65930;48.874;10.734;2023-04-15T00:04:26;95026.44;;;4.71;85.06
76998;BME280;65930;48.874;10.734;2023-04-15T00:06:54;95026.44;;;4.71;85.35
76998;BME280;65930;48.874;10.734;2023-04-15T00:09:22;95015.47;;;4.71;84.91
76998;BME280;65930;48.874;10.734;2023-04-15T00:11:50;95021.75;;;4.75;85.20
76998;BME280;65930;48.874;10.734;2023-04-15T00:14:18;95020.16;;;4.74;85.22
76998;BME280;65930;48.874;10.734;2023-04-15T00:16:48;95017.81;;;4.65;85.60
76998;BME280;65930;48.874;10.734;2023-04-15T00:19:21;95021.75;;;4.75;85.70
76998;BME280;65930;48.874;10.734;2023-04-15T00:21:49;95018.22;;;4.74;84.77
76998;BME280;65930;48.874;10.734;2023-04-15T00:24:17;95016.22;;;4.71;84.73
76998;BME280;65930;48.874;10.734;2023-04-15T00:26:45;95007.59;;;4.59;85.36
76998;BME280;65930;48.874;10.734;2023-04-15T00:29:13;95010.38;;;4.69;85.05
76998;BME280;65930;48.874;10.734;2023-04-15T00:31:41;95002.88;;;4.59;85.01
76998;BME280;65930;48.874;10.734;2023-04-15T00:34:10;95008.78;;;4.65;85.10
76998;BME280;65930;48.874;10.734;2023-04-15T00:36:38;95012.31;;;4.69;85.14
76998;BME280;65930;48.874;10.734;2023-04-15T00:39:06;95010.00;;;4.74;84.98
76998;BME280;65930;48.874;10.734;2023-04-15T00:41:34;95010.38;;;4.76;84.52
76998;BME280;65930;48.874;10.734;2023-04-15T00:44:05;95006.84;;;4.76;84.50
76998;BME280;65930;48.874;10.734;2023-04-15T00:46:35;95000.59;;;4.82;84.79
76998;BME280;65930;48.874;10.734;2023-04-15T00:49:05;95008.81;;;4.75;84.87
76998;BME280;65930;48.874;10.734;2023-04-15T00:51:35;95002.91;;;4.77;84.70
76998;BME280;65930;48.874;10.734;2023-04-15T00:54:04;94999.81;;;4.75;84.64
76998;BME280;65930;48.874;10.734;2023-04-15T00:56:35;94997.06;;;4.78;84.81
76998;BME280;65930;48.874;10.734;2023-04-15T00:59:03;95000.22;;;4.80;84.66
76998;BME280;65930;48.874;10.734;2023-04-15T01:01:34;94998.22;;;4.74;84.66
76998;BME280;65930;48.874;10.734;2023-04-15T01:04:03;94998.97;;;4.67;85.36
76998;BME280;65930;48.874;10.734;2023-04-15T01:06:31;94998.22;;;4.70;84.92
76998;BME280;65930;48.874;10.734;2023-04-15T01:09:01;94991.94;;;4.66;84.86
76998;BME280;65930;48.874;10.734;2023-04-15T01:11:31;94995.06;;;4.68;85.42
76998;BME280;65930;48.874;10.734;2023-04-15T01:14:00;94995.84;;;4.69;85.11
76998;BME280;65930;48.874;10.734;2023-04-15T01:16:28;94991.19;;;4.80;84.86
76998;BME280;65930;48.874;10.734;2023-04-15T01:18:56;94995.84;;;4.76;84.88
76998;BME280;65930;48.874;10.734;2023-04-15T01:21:25;94988.81;;;4.82;84.48
76998;BME280;65930;48.874;10.734;2023-04-15T01:23:54;94988.06;;;4.85;84.41
76998;BME280;65930;48.874;10.734;2023-04-15T01:26:25;94992.75;;;4.81;84.55
76998;BME280;65930;48.874;10.734;2023-04-15T01:28:53;94995.84;;;4.76;85.03
76998;BME280;65930;48.874;10.734;2023-04-15T01:31:22;94998.22;;;4.81;84.66
76998;BME280;65930;48.874;10.734;2023-04-15T01:33:49;94994.31;;;4.75;84.91
76998;BME280;65930;48.874;10.734;2023-04-15T01:36:18;94991.53;;;4.68;84.86
76998;BME280;65930;48.874;10.734;2023-04-15T01:38:49;94986.50;;;4.80;84.70
76998;BME280;65930;48.874;10.734;2023-04-15T01:41:20;94984.50;;;4.74;84.71
76998;BME280;65930;48.874;10.734;2023-04-15T01:43:50;94980.19;;;4.73;84.34
76998;BME280;65930;48.874;10.734;2023-04-15T01:46:18;94982.16;;;4.65;84.64
76998;BME280;65930;48.874;10.734;2023-04-15T01:48:46;94979.81;;;4.71;84.80
76998;BME280;65930;48.874;10.734;2023-04-15T01:51:16;94976.25;;;4.60;85.26
76998;BME280;65930;48.874;10.734;2023-04-15T01:53:44;94988.00;;;4.67;84.81
76998;BME280;65930;48.874;10.734;2023-04-15T01:56:12;94977.81;;;4.61;85.28
76998;BME280;65930;48.874;10.734;2023-04-15T01:58:42;94968.44;;;4.76;84.14
76998;BME280;65930;48.874;10.734;2023-04-15T02:01:11;94982.59;;;4.85;84.42
76998;BME280;65930;48.874;10.734;2023-04-15T02:03:40;94981.00;;;4.80;84.07
76998;BME280;65930;48.874;10.734;2023-04-15T02:06:08;94970.00;;;4.77;84.30
76998;BME280;65930;48.874;10.734;2023-04-15T02:08:36;94956.66;;;4.65;84.23
76998;BME280;65930;48.874;10.734;2023-04-15T02:11:04;94967.25;;;4.73;84.02
76998;BME280;65930;48.874;10.734;2023-04-15T02:13:32;94968.81;;;4.67;84.32
76998;BME280;65930;48.874;10.734;2023-04-15T02:16:00;94963.72;;;4.66;84.35
76998;BME280;65930;48.874;10.734;2023-04-15T02:18:29;94964.91;;;4.65;83.80
76998;BME280;65930;48.874;10.734;2023-04-15T02:20:57;94963.72;;;4.66;84.41
76998;BME280;65930;48.874;10.734;2023-04-15T02:23:25;94970.75;;;4.67;83.81
76998;BME280;65930;48.874;10.734;2023-04-15T02:25:53;94973.50;;;4.60;84.46
76998;BME280;65930;48.874;10.734;2023-04-15T02:28:21;94980.94;;;4.56;84.29
76998;BME280;65930;48.874;10.734;2023-04-15T02:30:49;94977.03;;;4.57;84.51
76998;BME280;65930;48.874;10.734;2023-04-15T02:33:20;94981.69;;;4.53;84.55
76998;BME280;65930;48.874;10.734;2023-04-15T02:35:49;94978.16;;;4.49;84.36
76998;BME280;65930;48.874;10.734;2023-04-15T02:38:18;94981.69;;;4.46;85.09
76998;BME280;65930;48.874;10.734;2023-04-15T02:40:46;94985.63;;;4.52;85.10
76998;BME280;65930;48.874;10.734;2023-04-15T02:43:15;94987.97;;;4.50;84.49
76998;BME280;65930;48.874;10.734;2023-04-15T02:45:44;94992.66;;;4.46;84.58
76998;BME280;65930;48.874;10.734;2023-04-15T02:48:12;94992.28;;;4.51;84.77
76998;BME280;65930;48.874;10.734;2023-04-15T02:50:40;94991.88;;;4.49;84.51
76998;BME280;65930;48.874;10.734;2023-04-15T02:53:10;94995.81;;;4.58;83.83
76998;BME280;65930;48.874;10.734;2023-04-15T02:55:39;94995.44;;;4.60;83.93
76998;BME280;65930;48.874;10.734;2023-04-15T02:58:06;94997.41;;;4.56;83.30
76998;BME280;65930;48.874;10.734;2023-04-15T03:00:34;94999.34;;;4.52;84.08
76998;BME280;65930;48.874;10.734;2023-04-15T03:03:04;94998.13;;;4.46;84.13
76998;BME280;65930;48.874;10.734;2023-04-15T03:05:32;94998.13;;;4.46;84.30
76998;BME280;65930;48.874;10.734;2023-04-15T03:08:03;94987.91;;;4.35;84.47
76998;BME280;65930;48.874;10.734;2023-04-15T03:10:33;94994.19;;;4.32;84.52
76998;BME280;65930;48.874;10.734;2023-04-15T03:13:01;94990.28;;;4.33;84.65
76998;BME280;65930;48.874;10.734;2023-04-15T03:15:29;95001.25;;;4.33;84.37
76998;BME280;65930;48.874;10.734;2023-04-15T03:17:57;94989.44;;;4.26;84.59
76998;BME280;65930;48.874;10.734;2023-04-15T03:20:25;94991.03;;;4.27;84.99
76998;BME280;65930;48.874;10.734;2023-04-15T03:22:53;94987.13;;;4.31;84.42
76998;BME280;65930;48.874;10.734;2023-04-15T03:25:21;94990.59;;;4.25;84.78
76998;BME280;65930;48.874;10.734;2023-04-15T03:27:50;94991.03;;;4.30;84.33
76998;BME280;65930;48.874;10.734;2023-04-15T03:30:18;94998.47;;;4.30;84.46
76998;BME280;65930;48.874;10.734;2023-04-15T03:32:47;94998.44;;;4.23;84.64
76998;BME280;65930;48.874;10.734;2023-04-15T03:35:15;94997.25;;;4.20;84.53
76998;BME280;65930;48.874;10.734;2023-04-15T03:37:43;94985.50;;;4.16;84.21
76998;BME280;65930;48.874;10.734;2023-04-15T03:40:11;94983.53;;;4.13;84.27
76998;BME280;65930;48.874;10.734;2023-04-15T03:42:39;94983.13;;;4.11;84.47
76998;BME280;65930;48.874;10.734;2023-04-15T03:45:09;94978.84;;;4.14;84.77
76998;BME280;65930;48.874;10.734;2023-04-15T03:47:38;94983.09;;;4.04;84.69
76998;BME280;65930;48.874;10.734;2023-04-15T03:50:07;94985.84;;;4.04;84.99
76998;BME280;65930;48.874;10.734;2023-04-15T03:52:35;94976.81;;;3.96;84.94
76998;BME280;65930;48.874;10.734;2023-04-15T03:55:03;94983.88;;;4.01;85.20
76998;BME280;65930;48.874;10.734;2023-04-15T03:57:31;94981.88;;;3.98;85.06
76998;BME280;65930;48.874;10.734;2023-04-15T04:00:04;94986.56;;;3.94;84.70
76998;BME280;65930;48.874;10.734;2023-04-15T04:02:34;94985.00;;;3.93;84.79
76998;BME280;65930;48.874;10.734;2023-04-15T04:05:02;94992.41;;;3.92;84.40
76998;BME280;65930;48.874;10.734;2023-04-15T04:07:30;94988.88;;;3.88;84.77
76998;BME280;65930;48.874;10.734;2023-04-15T04:09:58;94992.41;;;3.89;84.18
76998;BME280;65930;48.874;10.734;2023-04-15T04:12:26;94989.94;;;3.70;84.79
76998;BME280;65930;48.874;10.734;2023-04-15T04:14:54;94990.75;;;3.74;84.96
76998;BME280;65930;48.874;10.734;2023-04-15T04:17:22;94988.41;;;3.76;84.80
76998;BME280;65930;48.874;10.734;2023-04-15T04:19:51;94995.84;;;3.75;84.59
76998;BME280;65930;48.874;10.734;2023-04-15T04:22:21;95004.06;;;3.75;84.91
76998;BME280;65930;48.874;10.734;2023-04-15T04:24:49;94990.00;;;3.80;84.85
76998;BME280;65930;48.874;10.734;2023-04-15T04:27:17;94996.22;;;3.74;84.55
76998;BME280;65930;48.874;10.734;2023-04-15T04:29:45;94990.03;;;3.84;84.44
76998;BME280;65930;48.874;10.734;2023-04-15T04:32:15;94995.06;;;3.78;84.30
76998;BME280;65930;48.874;10.734;2023-04-15T04:34:43;94999.75;;;3.74;84.35
76998;BME280;65930;48.874;10.734;2023-04-15T04:37:12;95003.25;;;3.71;84.12
76998;BME280;65930;48.874;10.734;2023-04-15T04:39:40;95002.47;;;3.71;84.43
76998;BME280;65930;48.874;10.734;2023-04-15T04:42:08;94997.78;;;3.68;84.14
76998;BME280;65930;48.874;10.734;2023-04-15T04:44:36;94993.09;;;3.72;84.42
76998;BME280;65930;48.874;10.734;2023-04-15T04:47:04;95001.31;;;3.72;84.59
76998;BME280;65930;48.874;10.734;2023-04-15T04:49:33;95004.09;;;3.79;84.40
76998;BME280;65930;48.874;10.734;2023-04-15T04:52:01;95003.72;;;3.80;84.39
76998;BME280;65930;48.874;10.734;2023-04-15T04:54:30;95009.53;;;3.75;84.00
76998;BME280;65930;48.874;10.734;2023-04-15T04:56:58;94995.84;;;3.72;84.77
76998;BME280;65930;48.874;10.734;2023-04-15T04:59:26;95001.75;;;3.81;85.20
76998;BME280;65930;48.874;10.734;2023-04-15T05:01:54;95001.75;;;3.81;84.67
76998;BME280;65930;48.874;10.734;2023-04-15T05:04:22;95000.63;;;3.92;84.22
76998;BME280;65930;48.874;10.734;2023-04-15T05:06:50;95008.13;;;4.06;84.17
76998;BME280;65930;48.874;10.734;2023-04-15T05:09:18;95004.28;;;4.14;83.89
76998;BME280;65930;48.874;10.734;2023-04-15T05:11:47;95007.47;;;4.23;83.57
76998;BME280;65930;48.874;10.734;2023-04-15T05:14:15;95004.31;;;4.21;83.70
76998;BME280;65930;48.874;10.734;2023-04-15T05:16:43;95005.88;;;4.22;83.35
76998;BME280;65930;48.874;10.734;2023-04-15T05:19:11;95002.78;;;4.27;83.50
76998;BME280;65930;48.874;10.734;2023-04-15T05:21:39;95003.56;;;4.31;83.77
76998;BME280;65930;48.874;10.734;2023-04-15T05:24:07;95002.84;;;4.45;83.02
76998;BME280;65930;48.874;10.734;2023-04-15T05:26:35;95001.28;;;4.48;83.47
76998;BME280;65930;48.874;10.734;2023-04-15T05:29:04;95005.22;;;4.50;82.90
76998;BME280;65930;48.874;10.734;2023-04-15T05:31:32;95011.50;;;4.58;83.62
76998;BME280;65930;48.874;10.734;2023-04-15T05:34:00;95008.41;;;4.77;83.20
76998;BME280;65930;48.874;10.734;2023-04-15T05:36:28;95005.28;;;4.82;82.83
76998;BME280;65930;48.874;10.734;2023-04-15T05:38:57;95004.91;;;4.83;82.28
76998;BME280;65930;48.874;10.734;2023-04-15T05:41:25;95006.50;;;4.88;82.34
76998;BME280;65930;48.874;10.734;2023-04-15T05:43:53;95013.56;;;5.00;82.35
76998;BME280;65930;48.874;10.734;2023-04-15T05:46:23;95017.91;;;5.08;82.15
76998;BME280;65930;48.874;10.734;2023-04-15T05:48:50;95015.53;;;5.06;82.37
76998;BME280;65930;48.874;10.734;2023-04-15T05:51:21;95015.53;;;5.13;82.33
76998;BME280;65930;48.874;10.734;2023-04-15T05:53:49;95018.28;;;5.20;82.31
76998;BME280;65930;48.874;10.734;2023-04-15T05:56:17;95007.69;;;5.19;82.50
76998;BME280;65930;48.874;10.734;2023-04-15T05:58:45;95006.91;;;5.11;83.06
76998;BME280;65930;48.874;10.734;2023-04-15T06:01:13;95007.72;;;5.08;82.60
76998;BME280;65930;48.874;10.734;2023-04-15T06:03:43;95011.22;;;4.98;82.43
76998;BME280;65930;48.874;10.734;2023-04-15T06:06:11;95017.09;;;5.00;82.92
76998;BME280;65930;48.874;10.734;2023-04-15T06:08:39;95024.19;;;5.08;83.11
76998;BME280;65930;48.874;10.734;2023-04-15T06:11:07;95016.69;;;5.02;83.01
76998;BME280;65930;48.874;10.734;2023-04-15T06:13:35;95022.59;;;5.04;83.83
76998;BME280;65930;48.874;10.734;2023-04-15T06:16:03;95019.06;;;5.10;83.61
76998;BME280;65930;48.874;10.734;2023-04-15T06:18:31;95024.94;;;5.05;83.35
76998;BME280;65930;48.874;10.734;2023-04-15T06:21:00;95018.69;;;5.08;81.92
76998;BME280;65930;48.874;10.734;2023-04-15T06:23:28;95020.63;;;5.01;82.05
76998;BME280;65930;48.874;10.734;2023-04-15T06:25:56;95021.81;;;5.03;81.42
76998;BME280;65930;48.874;10.734;2023-04-15T06:28:24;95023.38;;;5.11;82.31
76998;BME280;65930;48.874;10.734;2023-04-15T06:30:52;95019.84;;;5.07;82.10
76998;BME280;65930;48.874;10.734;2023-04-15T06:33:21;95015.53;;;5.27;81.86
76998;BME280;65930;48.874;10.734;2023-04-15T06:35:49;95023.00;;;5.34;82.42
76998;BME280;65930;48.874;10.734;2023-04-15T06:38:18;95013.19;;;5.37;81.39
76998;BME280;65930;48.874;10.734;2023-04-15T06:40:46;95024.19;;;5.44;80.39
76998;BME280;65930;48.874;10.734;2023-04-15T06:43:14;95032.81;;;5.53;80.55
76998;BME280;65930;48.874;10.734;2023-04-15T06:45:42;95022.22;;;5.48;80.86
76998;BME280;65930;48.874;10.734;2023-04-15T06:48:10;95025.75;;;5.55;80.08
76998;BME280;65930;48.874;10.734;2023-04-15T06:50:38;95024.19;;;5.51;80.50
76998;BME280;65930;48.874;10.734;2023-04-15T06:53:06;95022.25;;;5.41;80.81
76998;BME280;65930;48.874;10.734;2023-04-15T06:55:35;95024.19;;;5.51;81.04
76998;BME280;65930;48.874;10.734;2023-04-15T06:58:03;95017.91;;;5.61;80.86
76998;BME280;65930;48.874;10.734;2023-04-15T07:00:31;95021.03;;;5.56;80.98
76998;BME280;65930;48.874;10.734;2023-04-15T07:02:59;95022.63;;;5.57;82.13
76998;BME280;65930;48.874;10.734;2023-04-15T07:05:29;95018.28;;;5.70;82.01
76998;BME280;65930;48.874;10.734;2023-04-15T07:07:57;95028.50;;;5.62;81.83
76998;BME280;65930;48.874;10.734;2023-04-15T07:10:26;95031.25;;;5.52;81.16
76998;BME280;65930;48.874;10.734;2023-04-15T07:12:55;95028.50;;;5.59;81.78
76998;BME280;65930;48.874;10.734;2023-04-15T07:15:23;95025.75;;;5.45;81.99
76998;BME280;65930;48.874;10.734;2023-04-15T07:17:51;95033.63;;;5.36;81.05
76998;BME280;65930;48.874;10.734;2023-04-15T07:20:19;95025.75;;;5.45;82.15
76998;BME280;65930;48.874;10.734;2023-04-15T07:22:47;95030.47;;;5.51;80.92
76998;BME280;65930;48.874;10.734;2023-04-15T07:25:15;95038.72;;;5.62;81.01
76998;BME280;65930;48.874;10.734;2023-04-15T07:27:43;95026.53;;;5.70;79.62
76998;BME280;65930;48.874;10.734;2023-04-15T07:30:14;95023.00;;;5.73;79.76
76998;BME280;65930;48.874;10.734;2023-04-15T07:32:41;95027.31;;;5.67;80.67
76998;BME280;65930;48.874;10.734;2023-04-15T07:35:09;95011.63;;;5.71;78.96
76998;BME280;65930;48.874;10.734;2023-04-15T07:37:37;95029.66;;;5.86;79.62
76998;BME280;65930;48.874;10.734;2023-04-15T07:40:06;95017.88;;;5.78;78.97
76998;BME280;65930;48.874;10.734;2023-04-15T07:42:35;95028.09;;;5.89;78.90
76998;BME280;65930;48.874;10.734;2023-04-15T07:45:07;95017.44;;;6.12;78.58
76998;BME280;65930;48.874;10.734;2023-04-15T07:47:37;95022.53;;;6.20;78.05
76998;BME280;65930;48.874;10.734;2023-04-15T07:50:07;95028.84;;;6.17;78.15
76998;BME280;65930;48.874;10.734;2023-04-15T07:52:36;95022.56;;;6.17;78.24
76998;BME280;65930;48.874;10.734;2023-04-15T07:55:05;95028.44;;;6.30;78.35
76998;BME280;65930;48.874;10.734;2023-04-15T07:57:34;95027.97;;;6.42;77.27
76998;BME280;65930;48.874;10.734;2023-04-15T08:00:05;95031.50;;;6.53;77.46
76998;BME280;65930;48.874;10.734;2023-04-15T08:02:34;95030.66;;;6.67;77.61
76998;BME280;65930;48.874;10.734;2023-04-15T08:05:07;95027.47;;;6.68;77.34
76998;BME280;65930;48.874;10.734;2023-04-15T08:07:36;95023.06;;;6.88;76.76
76998;BME280;65930;48.874;10.734;2023-04-15T08:10:05;95026.19;;;6.94;76.72
76998;BME280;65930;48.874;10.734;2023-04-15T08:12:33;95023.81;;;6.92;77.14
76998;BME280;65930;48.874;10.734;2023-04-15T08:15:01;95031.53;;;7.19;75.87
76998;BME280;65930;48.874;10.734;2023-04-15T08:17:29;95026.00;;;7.19;76.31
76998;BME280;65930;48.874;10.734;2023-04-15T08:19:57;95027.47;;;7.37;75.69
76998;BME280;65930;48.874;10.734;2023-04-15T08:22:26;95021.53;;;7.42;75.46
76998;BME280;65930;48.874;10.734;2023-04-15T08:24:54;95014.47;;;7.41;74.80
76998;BME280;65930;48.874;10.734;2023-04-15T08:27:22;95028.78;;;7.70;73.81
76998;BME280;65930;48.874;10.734;2023-04-15T08:29:50;95028.66;;;7.84;74.92
76998;BME280;65930;48.874;10.734;2023-04-15T08:32:18;95023.16;;;7.84;74.16
76998;BME280;65930;48.874;10.734;2023-04-15T08:34:46;95027.34;;;8.00;74.17
76998;BME280;65930;48.874;10.734;2023-04-15T08:37:13;95018.56;;;8.49;73.14
76998;BME280;65930;48.874;10.734;2023-04-15T08:39:43;95022.31;;;8.32;72.44
76998;BME280;65930;48.874;10.734;2023-04-15T08:42:16;95008.53;;;8.28;73.67
76998;BME280;65930;48.874;10.734;2023-04-15T08:44:46;95014.03;;;8.32;75.24
76998;BME280;65930;48.874;10.734;2023-04-15T08:47:20;95023.19;;;8.22;73.14
76998;BME280;65930;48.874;10.734;2023-04-15T08:49:52;95013.34;;;8.21;70.92
76998;BME280;65930;48.874;10.734;2023-04-15T08:52:24;95014.94;;;8.56;71.70
76998;BME280;65930;48.874;10.734;2023-04-15T08:54:57;95013.03;;;8.49;71.50
76998;BME280;65930;48.874;10.734;2023-04-15T08:57:25;95018.41;;;8.63;70.65
76998;BME280;65930;48.874;10.734;2023-04-15T08:59:55;95024.59;;;8.74;69.70
76998;BME280;65930;48.874;10.734;2023-04-15T09:02:24;95008.94;;;8.64;67.25
76998;BME280;65930;48.874;10.734;2023-04-15T09:04:53;95012.59;;;8.54;68.87
76998;BME280;65930;48.874;10.734;2023-04-15T09:07:22;95023.97;;;8.60;69.33
76998;BME280;65930;48.874;10.734;2023-04-15T09:09:50;95015.16;;;8.72;68.40
76998;BME280;65930;48.874;10.734;2023-04-15T09:12:19;95019.72;;;8.86;67.96
76998;BME280;65930;48.874;10.734;2023-04-15T09:14:48;95015.91;;;8.76;68.30
76998;BME280;65930;48.874;10.734;2023-04-15T09:17:18;95020.22;;;8.77;68.41
76998;BME280;65930;48.874;10.734;2023-04-15T09:19:47;95022.19;;;8.76;68.12
76998;BME280;65930;48.874;10.734;2023-04-15T09:22:15;95017.66;;;8.59;67.79
76998;BME280;65930;48.874;10.734;2023-04-15T09:24:43;95013.25;;;8.65;69.36
76998;BME280;65930;48.874;10.734;2023-04-15T09:27:15;95014.50;;;8.61;67.72
76998;BME280;65930;48.874;10.734;2023-04-15T09:29:49;95015.28;;;8.61;68.16
76998;BME280;65930;48.874;10.734;2023-04-15T09:32:17;95016.75;;;8.69;68.03
76998;BME280;65930;48.874;10.734;2023-04-15T09:34:45;95016.84;;;8.62;66.95
76998;BME280;65930;48.874;10.734;2023-04-15T09:37:13;95011.22;;;8.69;66.90
76998;BME280;65930;48.874;10.734;2023-04-15T09:39:57;95016.69;;;8.73;66.73
76998;BME280;65930;48.874;10.734;2023-04-15T09:42:25;95023.00;;;8.77;67.23
76998;BME280;65930;48.874;10.734;2023-04-15T09:45:07;95022.28;;;8.69;66.76
76998;BME280;65930;48.874;10.734;2023-04-15T09:47:35;95020.53;;;8.82;66.21
76998;BME280;65930;48.874;10.734;2023-04-15T09:50:04;95018.88;;;8.89;64.68
76998;BME280;65930;48.874;10.734;2023-04-15T09:52:32;95025.19;;;8.89;64.32
76998;BME280;65930;48.874;10.734;2023-04-15T09:54:59;95022.91;;;9.11;65.07
76998;BME280;65930;48.874;10.734;2023-04-15T09:57:33;95023.56;;;9.22;63.13
76998;BME280;65930;48.874;10.734;2023-04-15T10:00:04;95009.44;;;9.66;62.49
76998;BME280;65930;48.874;10.734;2023-04-15T10:02:34;95021.03;;;9.58;61.82
76998;BME280;65930;48.874;10.734;2023-04-15T10:05:03;95021.22;;;9.70;61.46
76998;BME280;65930;48.874;10.734;2023-04-15T10:07:32;95018.94;;;9.42;60.12
76998;BME280;65930;48.874;10.734;2023-04-15T10:10:00;95022.97;;;9.61;61.51
76998;BME280;65930;48.874;10.734;2023-04-15T10:12:31;95016.50;;;9.44;61.16
76998;BME280;65930;48.874;10.734;2023-04-15T10:15:04;95021.94;;;9.51;61.11
76998;BME280;65930;48.874;10.734;2023-04-15T10:17:33;95026.34;;;9.72;60.97
76998;BME280;65930;48.874;10.734;2023-04-15T10:20:04;95031.69;;;9.59;60.20
76998;BME280;65930;48.874;10.734;2023-04-15T10:22:35;95025.97;;;9.47;59.75
76998;BME280;65930;48.874;10.734;2023-04-15T10:25:04;95036.47;;;9.28;60.05
76998;BME280;65930;48.874;10.734;2023-04-15T10:27:33;95038.38;;;9.35;61.11
76998;BME280;65930;48.874;10.734;2023-04-15T10:30:04;95041.75;;;9.46;61.04
76998;BME280;65930;48.874;10.734;2023-04-15T10:32:32;95037.78;;;9.47;61.20
76998;BME280;65930;48.874;10.734;2023-04-15T10:35:01;95051.13;;;9.25;59.68
76998;BME280;65930;48.874;10.734;2023-04-15T10:37:34;95054.41;;;9.17;60.98
76998;BME280;65930;48.874;10.734;2023-04-15T10:40:26;95046.41;;;9.26;61.58
76998;BME280;65930;48.874;10.734;2023-04-15T10:42:59;95055.53;;;9.23;61.34
76998;BME280;65930;48.874;10.734;2023-04-15T10:45:32;95049.09;;;9.29;60.66
76998;BME280;65930;48.874;10.734;2023-04-15T10:48:02;95051.91;;;9.26;60.64
76998;BME280;65930;48.874;10.734;2023-04-15T10:50:31;95055.22;;;9.44;60.33
76998;BME280;65930;48.874;10.734;2023-04-15T10:53:02;95060.47;;;9.35;60.74
76998;BME280;65930;48.874;10.734;2023-04-15T10:55:32;95065.81;;;9.49;59.78
76998;BME280;65930;48.874;10.734;2023-04-15T10:58:01;95062.78;;;9.40;58.46
76998;BME280;65930;48.874;10.734;2023-04-15T11:00:31;95059.88;;;9.51;59.22
76998;BME280;65930;48.874;10.734;2023-04-15T11:03:05;95068.16;;;9.51;58.04
76998;BME280;65930;48.874;10.734;2023-04-15T11:05:49;95080.66;;;9.32;57.99
76998;BME280;65930;48.874;10.734;2023-04-15T11:08:18;95077.63;;;9.23;57.84
76998;BME280;65930;48.874;10.734;2023-04-15T11:10:51;95079.22;;;9.20;59.90
76998;BME280;65930;48.874;10.734;2023-04-15T11:13:27;95094.22;;;9.23;58.49
76998;BME280;65930;48.874;10.734;2023-04-15T11:16:01;95081.72;;;9.11;59.87
76998;BME280;65930;48.874;10.734;2023-04-15T11:18:31;95083.16;;;9.23;59.06
76998;BME280;65930;48.874;10.734;2023-04-15T11:21:02;95083.03;;;9.30;59.61
76998;BME280;65930;48.874;10.734;2023-04-15T11:23:41;95082.38;;;9.22;60.29
76998;BME280;65930;48.874;10.734;2023-04-15T11:26:13;95085.06;;;9.26;59.22
76998;BME280;65930;48.874;10.734;2023-04-15T11:28:43;95089.50;;;9.20;58.98
76998;BME280;65930;48.874;10.734;2023-04-15T11:31:14;95093.56;;;9.12;59.55
76998;BME280;65930;48.874;10.734;2023-04-15T11:33:45;95092.91;;;9.31;59.89
76998;BME280;65930;48.874;10.734;2023-04-15T11:36:13;95092.22;;;9.23;59.53
76998;BME280;65930;48.874;10.734;2023-04-15T11:38:42;95102.03;;;9.28;60.48
76998;BME280;65930;48.874;10.734;2023-04-15T11:41:11;95100.78;;;9.02;60.71
76998;BME280;65930;48.874;10.734;2023-04-15T11:43:39;95099.91;;;9.09;61.45
76998;BME280;65930;48.874;10.734;2023-04-15T11:46:07;95103.91;;;9.04;59.95
76998;BME280;65930;48.874;10.734;2023-04-15T11:48:41;95106.13;;;9.16;60.40
76998;BME280;65930;48.874;10.734;2023-04-15T11:51:10;95101.44;;;9.13;61.76
76998;BME280;65930;48.874;10.734;2023-04-15T11:53:41;95108.31;;;9.32;63.74
76998;BME280;65930;48.874;10.734;2023-04-15T11:56:10;95105.06;;;9.37;60.43
76998;BME280;65930;48.874;10.734;2023-04-15T11:58:43;95114.00;;;9.18;59.51
76998;BME280;65930;48.874;10.734;2023-04-15T12:01:12;95109.56;;;9.24;59.24
76998;BME280;65930;48.874;10.734;2023-04-15T12:03:43;95118.91;;;9.03;60.64
76998;BME280;65930;48.874;10.734;2023-04-15T12:06:15;95118.38;;;9.15;62.47
76998;BME280;65930;48.874;10.734;2023-04-15T12:08:55;95125.91;;;8.81;63.00
76998;BME280;65930;48.874;10.734;2023-04-15T12:11:29;95130.97;;;8.49;63.02
76998;BME280;65930;48.874;10.734;2023-04-15T12:13:59;95124.34;;;8.39;63.62
76998;BME280;65930;48.874;10.734;2023-04-15T12:16:29;95133.38;;;8.43;64.48
76998;BME280;65930;48.874;10.734;2023-04-15T12:19:02;95136.19;;;8.36;65.27
76998;BME280;65930;48.874;10.734;2023-04-15T12:21:34;95140.16;;;8.35;65.15
76998;BME280;65930;48.874;10.734;2023-04-15T12:24:04;95151.22;;;8.28;65.09
76998;BME280;65930;48.874;10.734;2023-04-15T12:26:35;95153.66;;;8.19;66.13
76998;BME280;65930;48.874;10.734;2023-04-15T12:29:05;95159.25;;;8.12;67.17
76998;BME280;65930;48.874;10.734;2023-04-15T12:31:34;95160.16;;;7.94;67.08
76998;BME280;65930;48.874;10.734;2023-04-15T12:34:07;95161.53;;;8.20;67.97
76998;BME280;65930;48.874;10.734;2023-04-15T12:36:35;95167.06;;;8.17;66.43
76998;BME280;65930;48.874;10.734;2023-04-15T12:39:03;95163.13;;;8.18;67.02
76998;BME280;65930;48.874;10.734;2023-04-15T12:41:32;95179.00;;;8.03;68.14
76998;BME280;65930;48.874;10.734;2023-04-15T12:44:00;95193.19;;;7.98;69.21
76998;BME280;65930;48.874;10.734;2023-04-15T12:46:28;95192.38;;;8.05;69.57
76998;BME280;65930;48.874;10.734;2023-04-15T12:48:56;95194.16;;;7.77;68.88
76998;BME280;65930;48.874;10.734;2023-04-15T12:51:26;95192.59;;;7.73;69.49
76998;BME280;65930;48.874;10.734;2023-04-15T12:53:54;95193.38;;;7.73;69.40
76998;BME280;65930;48.874;10.734;2023-04-15T12:56:22;95193.50;;;7.48;69.19
76998;BME280;65930;48.874;10.734;2023-04-15T12:58:50;95195.16;;;7.32;69.91
76998;BME280;65930;48.874;10.734;2023-04-15T13:01:18;95197.09;;;7.38;70.64
76998;BME280;65930;48.874;10.734;2023-04-15T13:03:46;95195.94;;;7.36;70.88
76998;BME280;65930;48.874;10.734;2023-04-15T13:06:16;95209.72;;;7.36;70.34
76998;BME280;65930;48.874;10.734;2023-04-15T13:08:45;95195.53;;;7.34;70.19
76998;BME280;65930;48.874;10.734;2023-04-15T13:11:23;95197.53;;;7.26;71.30